sensor_id;sensor_type;location;lat;lon;timestamp;P1;durP1;ratioP1;P2;durP2;ratioP2
47531;SDS011;33273;52.254;7.988;2023-06-22T00:02:17;7.82;;;6.55;;
47531;SDS011;33273;52.254;7.988;2023-06-22T00:04:43;9.38;;;6.35;;
47531;SDS011;33273;52.254;7.988;2023-06-22T00:07:09;8.82;;;6.50;;
47531;SDS011;33273;52.254;7.988;2023-06-22T00:09:36;7.88;;;6.20;;
47531;SDS011;33273;52.254;7.988;2023-06-22T00:12:02;9.43;;;6.47;;
47531;SDS011;33273;52.254;7.988;2023-06-22T00:14:28;8.80;;;6.30;;
47531;SDS011;33273;52.254;7.988;2023-06-22T00:16:54;7.63;;;6.22;;
47531;SDS011;33273;52.254;7.988;2023-06-22T00:19:25;7.68;;;5.80;;
47531;SDS011;33273;52.254;7.988;2023-06-22T00:21:51;7.85;;;6.60;;
47531;SDS011;33273;52.254;7.988;2023-06-22T00:24:20;7.45;;;6.00;;
47531;SDS011;33273;52.254;7.988;2023-06-22T00:26:47;7.82;;;5.68;;
47531;SDS011;33273;52.254;7.988;2023-06-22T00:29:14;9.25;;;6.22;;
47531;SDS011;33273;52.254;7.988;2023-06-22T00:31:40;7.30;;;5.95;;
47531;SDS011;33273;52.254;7.988;2023-06-22T00:34:06;8.27;;;6.57;;
47531;SDS011;33273;52.254;7.988;2023-06-22T00:36:34;8.45;;;6.65;;
47531;SDS011;33273;52.254;7.988;2023-06-22T00:39:06;8.75;;;6.95;;
47531;SDS011;33273;52.254;7.988;2023-06-22T00:41:32;8.75;;;6.95;;
47531;SDS011;33273;52.254;7.988;2023-06-22T00:43:59;9.65;;;6.70;;
47531;SDS011;33273;52.254;7.988;2023-06-22T00:46:25;9.33;;;7.00;;
47531;SDS011;33273;52.254;7.988;2023-06-22T00:48:51;8.35;;;7.15;;
47531;SDS011;33273;52.254;7.988;2023-06-22T00:51:17;8.47;;;7.23;;
47531;SDS011;33273;52.254;7.988;2023-06-22T00:53:50;8.18;;;6.53;;
47531;SDS011;33273;52.254;7.988;2023-06-22T00:56:17;8.55;;;6.55;;
47531;SDS011;33273;52.254;7.988;2023-06-22T00:58:45;7.78;;;6.82;;
47531;SDS011;33273;52.254;7.988;2023-06-22T01:01:13;8.18;;;6.95;;
47531;SDS011;33273;52.254;7.988;2023-06-22T01:03:39;9.10;;;6.82;;
47531;SDS011;33273;52.254;7.988;2023-06-22T01:06:07;8.20;;;6.43;;
47531;SDS011;33273;52.254;7.988;2023-06-22T01:08:51;9.57;;;7.03;;
47531;SDS011;33273;52.254;7.988;2023-06-22T01:11:28;8.60;;;6.70;;
47531;SDS011;33273;52.254;7.988;2023-06-22T01:16:55;10.55;;;7.38;;
47531;SDS011;33273;52.254;7.988;2023-06-22T01:19:44;9.50;;;7.47;;
47531;SDS011;33273;52.254;7.988;2023-06-22T01:22:17;8.95;;;7.50;;
47531;SDS011;33273;52.254;7.988;2023-06-22T01:27:58;10.27;;;7.68;;
47531;SDS011;33273;52.254;7.988;2023-06-22T01:30:34;9.98;;;8.07;;
47531;SDS011;33273;52.254;7.988;2023-06-22T01:33:02;10.27;;;8.32;;
47531;SDS011;33273;52.254;7.988;2023-06-22T01:35:30;16.15;;;9.38;;
47531;SDS011;33273;52.254;7.988;2023-06-22T01:37:59;12.77;;;8.70;;
47531;SDS011;33273;52.254;7.988;2023-06-22T01:40:25;10.32;;;8.13;;
47531;SDS011;33273;52.254;7.988;2023-06-22T01:42:52;9.23;;;7.60;;
47531;SDS011;33273;52.254;7.988;2023-06-22T01:45:19;11.00;;;7.57;;
47531;SDS011;33273;52.254;7.988;2023-06-22T01:47:45;9.38;;;7.72;;
47531;SDS011;33273;52.254;7.988;2023-06-22T01:50:11;10.85;;;8.30;;
47531;SDS011;33273;52.254;7.988;2023-06-22T01:52:37;10.52;;;8.02;;
47531;SDS011;33273;52.254;7.988;2023-06-22T01:55:03;10.25;;;8.05;;
47531;SDS011;33273;52.254;7.988;2023-06-22T01:57:31;9.57;;;8.37;;
47531;SDS011;33273;52.254;7.988;2023-06-22T02:00:02;9.68;;;7.97;;
47531;SDS011;33273;52.254;7.988;2023-06-22T02:05:10;10.85;;;8.18;;
47531;SDS011;33273;52.254;7.988;2023-06-22T02:10:32;10.30;;;8.27;;
47531;SDS011;33273;52.254;7.988;2023-06-22T02:12:59;12.07;;;9.38;;
47531;SDS011;33273;52.254;7.988;2023-06-22T02:15:27;10.27;;;9.00;;
47531;SDS011;33273;52.254;7.988;2023-06-22T02:17:54;10.50;;;9.40;;
47531;SDS011;33273;52.254;7.988;2023-06-22T02:20:21;11.85;;;9.70;;
47531;SDS011;33273;52.254;7.988;2023-06-22T02:22:48;11.90;;;9.67;;
47531;SDS011;33273;52.254;7.988;2023-06-22T02:25:14;10.60;;;9.45;;
47531;SDS011;33273;52.254;7.988;2023-06-22T02:27:40;11.07;;;9.35;;
47531;SDS011;33273;52.254;7.988;2023-06-22T02:30:09;12.57;;;9.98;;
47531;SDS011;33273;52.254;7.988;2023-06-22T02:32:38;12.48;;;9.65;;
47531;SDS011;33273;52.254;7.988;2023-06-22T02:35:06;10.00;;;9.00;;
47531;SDS011;33273;52.254;7.988;2023-06-22T02:37:33;13.32;;;10.10;;
47531;SDS011;33273;52.254;7.988;2023-06-22T02:40:04;11.57;;;8.55;;
47531;SDS011;33273;52.254;7.988;2023-06-22T02:42:33;10.98;;;9.35;;
47531;SDS011;33273;52.254;7.988;2023-06-22T02:44:59;11.88;;;9.38;;
47531;SDS011;33273;52.254;7.988;2023-06-22T02:47:25;10.95;;;9.40;;
47531;SDS011;33273;52.254;7.988;2023-06-22T02:49:52;12.48;;;10.40;;
47531;SDS011;33273;52.254;7.988;2023-06-22T02:52:18;12.25;;;10.20;;
47531;SDS011;33273;52.254;7.988;2023-06-22T02:54:44;16.85;;;10.57;;
47531;SDS011;33273;52.254;7.988;2023-06-22T02:57:12;11.48;;;10.10;;
47531;SDS011;33273;52.254;7.988;2023-06-22T02:59:40;11.80;;;9.77;;
47531;SDS011;33273;52.254;7.988;2023-06-22T03:02:09;11.68;;;10.27;;
47531;SDS011;33273;52.254;7.988;2023-06-22T03:04:35;11.65;;;10.32;;
47531;SDS011;33273;52.254;7.988;2023-06-22T03:07:01;11.55;;;9.88;;
47531;SDS011;33273;52.254;7.988;2023-06-22T03:09:29;10.63;;;9.50;;
47531;SDS011;33273;52.254;7.988;2023-06-22T03:11:56;12.45;;;10.13;;
47531;SDS011;33273;52.254;7.988;2023-06-22T03:14:26;11.90;;;9.65;;
47531;SDS011;33273;52.254;7.988;2023-06-22T03:16:52;11.52;;;9.82;;
47531;SDS011;33273;52.254;7.988;2023-06-22T03:19:18;13.45;;;10.43;;
47531;SDS011;33273;52.254;7.988;2023-06-22T03:21:47;11.95;;;9.95;;
47531;SDS011;33273;52.254;7.988;2023-06-22T03:24:13;11.80;;;10.30;;
47531;SDS011;33273;52.254;7.988;2023-06-22T03:26:39;12.50;;;9.27;;
47531;SDS011;33273;52.254;7.988;2023-06-22T03:29:05;11.95;;;10.20;;
47531;SDS011;33273;52.254;7.988;2023-06-22T03:31:33;13.00;;;10.25;;
47531;SDS011;33273;52.254;7.988;2023-06-22T03:33:59;12.57;;;10.50;;
47531;SDS011;33273;52.254;7.988;2023-06-22T03:36:25;12.52;;;10.38;;
47531;SDS011;33273;52.254;7.988;2023-06-22T03:38:51;11.18;;;9.82;;
47531;SDS011;33273;52.254;7.988;2023-06-22T03:41:17;11.80;;;9.68;;
47531;SDS011;33273;52.254;7.988;2023-06-22T03:43:43;11.63;;;9.93;;
47531;SDS011;33273;52.254;7.988;2023-06-22T03:46:10;10.82;;;9.73;;
47531;SDS011;33273;52.254;7.988;2023-06-22T03:48:37;11.93;;;10.52;;
47531;SDS011;33273;52.254;7.988;2023-06-22T03:51:04;14.50;;;9.70;;
47531;SDS011;33273;52.254;7.988;2023-06-22T03:53:30;14.07;;;10.52;;
47531;SDS011;33273;52.254;7.988;2023-06-22T03:55:56;13.07;;;10.27;;
47531;SDS011;33273;52.254;7.988;2023-06-22T03:58:22;11.68;;;10.48;;
47531;SDS011;33273;52.254;7.988;2023-06-22T04:00:51;13.70;;;10.70;;
47531;SDS011;33273;52.254;7.988;2023-06-22T04:03:18;13.38;;;10.80;;
47531;SDS011;33273;52.254;7.988;2023-06-22T04:05:44;12.45;;;10.30;;
47531;SDS011;33273;52.254;7.988;2023-06-22T04:08:11;13.73;;;11.55;;
47531;SDS011;33273;52.254;7.988;2023-06-22T04:10:38;14.00;;;10.95;;
47531;SDS011;33273;52.254;7.988;2023-06-22T04:13:04;13.90;;;11.55;;
47531;SDS011;33273;52.254;7.988;2023-06-22T04:15:30;14.30;;;11.50;;
47531;SDS011;33273;52.254;7.988;2023-06-22T04:17:59;15.45;;;11.93;;
47531;SDS011;33273;52.254;7.988;2023-06-22T04:20:24;16.13;;;11.65;;
47531;SDS011;33273;52.254;7.988;2023-06-22T04:22:54;14.38;;;11.57;;
47531;SDS011;33273;52.254;7.988;2023-06-22T04:25:19;13.85;;;11.95;;
47531;SDS011;33273;52.254;7.988;2023-06-22T04:27:46;15.15;;;11.18;;
47531;SDS011;33273;52.254;7.988;2023-06-22T04:30:15;12.83;;;10.40;;
47531;SDS011;33273;52.254;7.988;2023-06-22T04:32:43;12.77;;;10.00;;
47531;SDS011;33273;52.254;7.988;2023-06-22T04:35:09;12.35;;;10.18;;
47531;SDS011;33273;52.254;7.988;2023-06-22T04:37:37;13.18;;;10.75;;
47531;SDS011;33273;52.254;7.988;2023-06-22T04:40:04;11.43;;;9.95;;
47531;SDS011;33273;52.254;7.988;2023-06-22T04:42:34;12.55;;;9.98;;
47531;SDS011;33273;52.254;7.988;2023-06-22T04:45:01;11.38;;;10.05;;
47531;SDS011;33273;52.254;7.988;2023-06-22T04:47:28;12.18;;;10.55;;
47531;SDS011;33273;52.254;7.988;2023-06-22T04:49:54;12.88;;;10.77;;
47531;SDS011;33273;52.254;7.988;2023-06-22T04:52:19;12.70;;;10.50;;
47531;SDS011;33273;52.254;7.988;2023-06-22T04:54:45;11.60;;;10.10;;
47531;SDS011;33273;52.254;7.988;2023-06-22T04:57:15;12.15;;;9.88;;
47531;SDS011;33273;52.254;7.988;2023-06-22T04:59:41;13.60;;;10.32;;
47531;SDS011;33273;52.254;7.988;2023-06-22T05:02:09;11.52;;;10.32;;
47531;SDS011;33273;52.254;7.988;2023-06-22T05:04:35;12.02;;;9.88;;
47531;SDS011;33273;52.254;7.988;2023-06-22T05:07:03;11.73;;;9.82;;
47531;SDS011;33273;52.254;7.988;2023-06-22T05:09:30;11.60;;;9.40;;
47531;SDS011;33273;52.254;7.988;2023-06-22T05:11:56;10.77;;;9.65;;
47531;SDS011;33273;52.254;7.988;2023-06-22T05:14:22;10.45;;;9.05;;
47531;SDS011;33273;52.254;7.988;2023-06-22T05:16:48;10.27;;;8.40;;
47531;SDS011;33273;52.254;7.988;2023-06-22T05:19:17;11.95;;;9.38;;
47531;SDS011;33273;52.254;7.988;2023-06-22T05:21:43;10.15;;;8.60;;
47531;SDS011;33273;52.254;7.988;2023-06-22T05:24:09;10.75;;;8.27;;
47531;SDS011;33273;52.254;7.988;2023-06-22T05:26:35;10.53;;;9.00;;
47531;SDS011;33273;52.254;7.988;2023-06-22T05:29:01;10.07;;;8.13;;
47531;SDS011;33273;52.254;7.988;2023-06-22T05:31:28;12.32;;;8.90;;
47531;SDS011;33273;52.254;7.988;2023-06-22T05:33:55;9.75;;;8.13;;
47531;SDS011;33273;52.254;7.988;2023-06-22T05:36:22;11.35;;;8.18;;
47531;SDS011;33273;52.254;7.988;2023-06-22T05:38:52;9.63;;;8.00;;
47531;SDS011;33273;52.254;7.988;2023-06-22T05:41:19;11.63;;;8.43;;
47531;SDS011;33273;52.254;7.988;2023-06-22T05:43:45;11.65;;;8.70;;
47531;SDS011;33273;52.254;7.988;2023-06-22T05:46:11;12.32;;;8.68;;
47531;SDS011;33273;52.254;7.988;2023-06-22T05:48:37;12.55;;;9.02;;
47531;SDS011;33273;52.254;7.988;2023-06-22T05:51:12;11.50;;;8.68;;
47531;SDS011;33273;52.254;7.988;2023-06-22T05:53:44;9.70;;;8.70;;
47531;SDS011;33273;52.254;7.988;2023-06-22T05:56:14;11.27;;;9.02;;
47531;SDS011;33273;52.254;7.988;2023-06-22T05:58:41;11.88;;;8.70;;
47531;SDS011;33273;52.254;7.988;2023-06-22T06:01:07;10.07;;;8.10;;
47531;SDS011;33273;52.254;7.988;2023-06-22T06:03:33;10.35;;;8.63;;
47531;SDS011;33273;52.254;7.988;2023-06-22T06:05:59;11.27;;;8.97;;
47531;SDS011;33273;52.254;7.988;2023-06-22T06:08:28;10.93;;;8.93;;
47531;SDS011;33273;52.254;7.988;2023-06-22T06:10:54;14.35;;;9.30;;
47531;SDS011;33273;52.254;7.988;2023-06-22T06:13:20;12.57;;;9.63;;
47531;SDS011;33273;52.254;7.988;2023-06-22T06:15:46;11.60;;;9.53;;
47531;SDS011;33273;52.254;7.988;2023-06-22T06:18:13;12.75;;;10.20;;
47531;SDS011;33273;52.254;7.988;2023-06-22T06:20:39;11.75;;;9.38;;
47531;SDS011;33273;52.254;7.988;2023-06-22T06:23:05;11.40;;;8.88;;
47531;SDS011;33273;52.254;7.988;2023-06-22T06:25:31;11.65;;;9.38;;
47531;SDS011;33273;52.254;7.988;2023-06-22T06:27:56;11.13;;;8.85;;
47531;SDS011;33273;52.254;7.988;2023-06-22T06:30:22;10.52;;;9.07;;
47531;SDS011;33273;52.254;7.988;2023-06-22T06:32:49;10.57;;;9.03;;
47531;SDS011;33273;52.254;7.988;2023-06-22T06:35:15;11.65;;;8.48;;
47531;SDS011;33273;52.254;7.988;2023-06-22T06:37:42;10.65;;;8.65;;
47531;SDS011;33273;52.254;7.988;2023-06-22T06:40:10;9.65;;;8.57;;
47531;SDS011;33273;52.254;7.988;2023-06-22T06:42:38;10.80;;;9.25;;
47531;SDS011;33273;52.254;7.988;2023-06-22T06:45:07;10.40;;;9.33;;
47531;SDS011;33273;52.254;7.988;2023-06-22T06:47:34;12.23;;;9.65;;
47531;SDS011;33273;52.254;7.988;2023-06-22T06:50:00;12.27;;;10.47;;
47531;SDS011;33273;52.254;7.988;2023-06-22T06:52:25;11.67;;;10.00;;
47531;SDS011;33273;52.254;7.988;2023-06-22T06:54:51;11.25;;;10.00;;
47531;SDS011;33273;52.254;7.988;2023-06-22T06:57:18;12.02;;;9.32;;
47531;SDS011;33273;52.254;7.988;2023-06-22T06:59:45;12.87;;;10.73;;
47531;SDS011;33273;52.254;7.988;2023-06-22T07:02:11;12.57;;;10.30;;
47531;SDS011;33273;52.254;7.988;2023-06-22T07:04:37;12.88;;;9.80;;
47531;SDS011;33273;52.254;7.988;2023-06-22T07:07:03;11.98;;;10.20;;
47531;SDS011;33273;52.254;7.988;2023-06-22T07:09:30;12.20;;;10.38;;
47531;SDS011;33273;52.254;7.988;2023-06-22T07:11:56;11.25;;;10.05;;
47531;SDS011;33273;52.254;7.988;2023-06-22T07:14:22;12.48;;;10.57;;
47531;SDS011;33273;52.254;7.988;2023-06-22T07:16:48;11.43;;;10.25;;
47531;SDS011;33273;52.254;7.988;2023-06-22T07:19:13;12.35;;;10.70;;
47531;SDS011;33273;52.254;7.988;2023-06-22T07:21:39;12.40;;;10.85;;
47531;SDS011;33273;52.254;7.988;2023-06-22T07:24:06;12.57;;;10.98;;
47531;SDS011;33273;52.254;7.988;2023-06-22T07:26:32;13.23;;;10.57;;
47531;SDS011;33273;52.254;7.988;2023-06-22T07:28:58;10.93;;;9.82;;
47531;SDS011;33273;52.254;7.988;2023-06-22T07:31:25;13.68;;;10.45;;
47531;SDS011;33273;52.254;7.988;2023-06-22T07:33:51;11.55;;;9.80;;
47531;SDS011;33273;52.254;7.988;2023-06-22T07:36:17;21.02;;;11.25;;
47531;SDS011;33273;52.254;7.988;2023-06-22T07:38:44;14.15;;;10.68;;
47531;SDS011;33273;52.254;7.988;2023-06-22T07:41:10;14.45;;;10.48;;
47531;SDS011;33273;52.254;7.988;2023-06-22T07:43:36;12.30;;;9.68;;
47531;SDS011;33273;52.254;7.988;2023-06-22T07:46:02;12.27;;;10.48;;
47531;SDS011;33273;52.254;7.988;2023-06-22T07:48:29;14.93;;;10.48;;
47531;SDS011;33273;52.254;7.988;2023-06-22T07:50:55;15.10;;;11.55;;
47531;SDS011;33273;52.254;7.988;2023-06-22T07:53:21;14.95;;;10.93;;
47531;SDS011;33273;52.254;7.988;2023-06-22T07:55:48;12.43;;;11.13;;
47531;SDS011;33273;52.254;7.988;2023-06-22T07:58:14;14.93;;;11.23;;
47531;SDS011;33273;52.254;7.988;2023-06-22T08:00:41;12.75;;;10.90;;
47531;SDS011;33273;52.254;7.988;2023-06-22T08:03:07;15.15;;;12.85;;
47531;SDS011;33273;52.254;7.988;2023-06-22T08:05:33;15.55;;;12.02;;
47531;SDS011;33273;52.254;7.988;2023-06-22T08:07:59;19.55;;;13.02;;
47531;SDS011;33273;52.254;7.988;2023-06-22T08:10:25;13.73;;;12.20;;
47531;SDS011;33273;52.254;7.988;2023-06-22T08:12:51;14.63;;;12.43;;
47531;SDS011;33273;52.254;7.988;2023-06-22T08:15:17;14.00;;;11.98;;
47531;SDS011;33273;52.254;7.988;2023-06-22T08:17:44;22.70;;;11.63;;
47531;SDS011;33273;52.254;7.988;2023-06-22T08:20:11;20.45;;;12.43;;
47531;SDS011;33273;52.254;7.988;2023-06-22T08:22:39;15.15;;;12.00;;
47531;SDS011;33273;52.254;7.988;2023-06-22T08:25:06;14.82;;;11.40;;
47531;SDS011;33273;52.254;7.988;2023-06-22T08:27:32;14.88;;;11.75;;
47531;SDS011;33273;52.254;7.988;2023-06-22T08:30:00;14.65;;;11.95;;
47531;SDS011;33273;52.254;7.988;2023-06-22T08:32:27;18.25;;;12.05;;
47531;SDS011;33273;52.254;7.988;2023-06-22T08:34:54;19.55;;;11.98;;
47531;SDS011;33273;52.254;7.988;2023-06-22T08:37:21;14.77;;;12.23;;
47531;SDS011;33273;52.254;7.988;2023-06-22T08:39:59;18.80;;;11.65;;
47531;SDS011;33273;52.254;7.988;2023-06-22T08:42:27;16.17;;;11.30;;
47531;SDS011;33273;52.254;7.988;2023-06-22T08:44:52;17.02;;;11.38;;
47531;SDS011;33273;52.254;7.988;2023-06-22T08:47:19;14.48;;;10.73;;
47531;SDS011;33273;52.254;7.988;2023-06-22T08:49:45;13.40;;;11.35;;
47531;SDS011;33273;52.254;7.988;2023-06-22T08:52:12;11.90;;;10.45;;
47531;SDS011;33273;52.254;7.988;2023-06-22T08:54:39;13.35;;;10.55;;
47531;SDS011;33273;52.254;7.988;2023-06-22T08:57:05;17.45;;;10.88;;
47531;SDS011;33273;52.254;7.988;2023-06-22T08:59:31;13.02;;;11.55;;
47531;SDS011;33273;52.254;7.988;2023-06-22T09:01:57;14.52;;;11.55;;
47531;SDS011;33273;52.254;7.988;2023-06-22T09:04:23;14.15;;;11.73;;
47531;SDS011;33273;52.254;7.988;2023-06-22T09:06:49;16.10;;;12.15;;
47531;SDS011;33273;52.254;7.988;2023-06-22T09:09:17;13.23;;;11.73;;
47531;SDS011;33273;52.254;7.988;2023-06-22T09:11:43;12.35;;;11.00;;
47531;SDS011;33273;52.254;7.988;2023-06-22T09:14:10;14.43;;;10.97;;
47531;SDS011;33273;52.254;7.988;2023-06-22T09:16:36;15.80;;;10.70;;
47531;SDS011;33273;52.254;7.988;2023-06-22T09:19:02;14.70;;;11.82;;
47531;SDS011;33273;52.254;7.988;2023-06-22T09:21:28;14.75;;;12.30;;
47531;SDS011;33273;52.254;7.988;2023-06-22T09:23:54;15.50;;;13.18;;
47531;SDS011;33273;52.254;7.988;2023-06-22T09:26:20;14.73;;;13.13;;
47531;SDS011;33273;52.254;7.988;2023-06-22T09:28:49;18.58;;;12.70;;
47531;SDS011;33273;52.254;7.988;2023-06-22T09:31:15;15.35;;;12.63;;
47531;SDS011;33273;52.254;7.988;2023-06-22T09:33:42;17.05;;;14.20;;
47531;SDS011;33273;52.254;7.988;2023-06-22T09:36:08;14.88;;;13.27;;
47531;SDS011;33273;52.254;7.988;2023-06-22T09:38:35;14.18;;;12.48;;
47531;SDS011;33273;52.254;7.988;2023-06-22T09:41:02;15.77;;;13.02;;
47531;SDS011;33273;52.254;7.988;2023-06-22T09:43:27;15.35;;;12.35;;
47531;SDS011;33273;52.254;7.988;2023-06-22T09:45:54;17.05;;;13.20;;
47531;SDS011;33273;52.254;7.988;2023-06-22T09:48:22;15.13;;;12.75;;
47531;SDS011;33273;52.254;7.988;2023-06-22T09:50:48;17.38;;;12.85;;
47531;SDS011;33273;52.254;7.988;2023-06-22T09:53:14;16.98;;;13.98;;
47531;SDS011;33273;52.254;7.988;2023-06-22T09:55:40;17.02;;;13.40;;
47531;SDS011;33273;52.254;7.988;2023-06-22T09:58:05;15.10;;;13.50;;
47531;SDS011;33273;52.254;7.988;2023-06-22T10:00:34;18.13;;;13.98;;
47531;SDS011;33273;52.254;7.988;2023-06-22T10:03:02;16.20;;;14.50;;
47531;SDS011;33273;52.254;7.988;2023-06-22T10:05:28;27.95;;;15.35;;
47531;SDS011;33273;52.254;7.988;2023-06-22T10:07:54;16.92;;;14.20;;
47531;SDS011;33273;52.254;7.988;2023-06-22T10:10:20;16.77;;;15.00;;
47531;SDS011;33273;52.254;7.988;2023-06-22T10:12:47;16.77;;;14.48;;
47531;SDS011;33273;52.254;7.988;2023-06-22T10:15:22;16.70;;;13.55;;
47531;SDS011;33273;52.254;7.988;2023-06-22T10:17:54;16.52;;;14.15;;
47531;SDS011;33273;52.254;7.988;2023-06-22T10:20:43;19.85;;;13.50;;
47531;SDS011;33273;52.254;7.988;2023-06-22T10:23:29;16.23;;;13.82;;
47531;SDS011;33273;52.254;7.988;2023-06-22T10:25:55;15.90;;;14.30;;
47531;SDS011;33273;52.254;7.988;2023-06-22T10:28:23;16.10;;;14.32;;
47531;SDS011;33273;52.254;7.988;2023-06-22T10:30:49;22.02;;;14.57;;
47531;SDS011;33273;52.254;7.988;2023-06-22T10:33:15;17.50;;;13.43;;
47531;SDS011;33273;52.254;7.988;2023-06-22T10:35:41;14.05;;;12.45;;
47531;SDS011;33273;52.254;7.988;2023-06-22T10:38:06;13.00;;;11.63;;
47531;SDS011;33273;52.254;7.988;2023-06-22T10:40:33;14.63;;;13.13;;
47531;SDS011;33273;52.254;7.988;2023-06-22T10:42:59;15.93;;;14.03;;
47531;SDS011;33273;52.254;7.988;2023-06-22T10:45:25;15.25;;;13.15;;
47531;SDS011;33273;52.254;7.988;2023-06-22T10:47:53;14.00;;;12.23;;
47531;SDS011;33273;52.254;7.988;2023-06-22T10:50:19;19.42;;;13.23;;
47531;SDS011;33273;52.254;7.988;2023-06-22T10:52:45;15.30;;;13.70;;
47531;SDS011;33273;52.254;7.988;2023-06-22T10:55:11;13.83;;;12.43;;
47531;SDS011;33273;52.254;7.988;2023-06-22T10:57:37;14.20;;;12.20;;
47531;SDS011;33273;52.254;7.988;2023-06-22T11:00:10;13.77;;;12.13;;
47531;SDS011;33273;52.254;7.988;2023-06-22T11:02:37;13.52;;;12.13;;
47531;SDS011;33273;52.254;7.988;2023-06-22T11:05:03;13.75;;;12.35;;
47531;SDS011;33273;52.254;7.988;2023-06-22T11:07:30;14.70;;;12.35;;
47531;SDS011;33273;52.254;7.988;2023-06-22T11:09:57;14.73;;;12.10;;
47531;SDS011;33273;52.254;7.988;2023-06-22T11:12:23;13.87;;;12.03;;
47531;SDS011;33273;52.254;7.988;2023-06-22T11:14:48;14.38;;;12.70;;
47531;SDS011;33273;52.254;7.988;2023-06-22T11:17:17;14.75;;;12.48;;
47531;SDS011;33273;52.254;7.988;2023-06-22T11:19:43;13.83;;;11.77;;
47531;SDS011;33273;52.254;7.988;2023-06-22T11:22:10;14.07;;;12.45;;
47531;SDS011;33273;52.254;7.988;2023-06-22T11:24:36;13.65;;;11.20;;
47531;SDS011;33273;52.254;7.988;2023-06-22T11:27:02;13.63;;;12.23;;
47531;SDS011;33273;52.254;7.988;2023-06-22T11:29:27;12.90;;;11.57;;
47531;SDS011;33273;52.254;7.988;2023-06-22T11:31:53;12.70;;;11.23;;
47531;SDS011;33273;52.254;7.988;2023-06-22T11:34:19;13.63;;;12.23;;
47531;SDS011;33273;52.254;7.988;2023-06-22T11:36:45;15.68;;;12.25;;
47531;SDS011;33273;52.254;7.988;2023-06-22T11:39:13;12.70;;;11.40;;
47531;SDS011;33273;52.254;7.988;2023-06-22T11:41:40;13.18;;;11.80;;
47531;SDS011;33273;52.254;7.988;2023-06-22T11:44:07;12.55;;;10.70;;
47531;SDS011;33273;52.254;7.988;2023-06-22T11:46:33;12.93;;;11.52;;
47531;SDS011;33273;52.254;7.988;2023-06-22T11:49:00;13.95;;;12.13;;
47531;SDS011;33273;52.254;7.988;2023-06-22T11:51:26;13.73;;;12.32;;
47531;SDS011;33273;52.254;7.988;2023-06-22T11:53:53;14.63;;;12.95;;
47531;SDS011;33273;52.254;7.988;2023-06-22T11:56:22;14.02;;;12.00;;
47531;SDS011;33273;52.254;7.988;2023-06-22T11:58:48;14.52;;;11.95;;
47531;SDS011;33273;52.254;7.988;2023-06-22T12:01:13;15.85;;;11.40;;
47531;SDS011;33273;52.254;7.988;2023-06-22T12:03:40;13.77;;;11.00;;
47531;SDS011;33273;52.254;7.988;2023-06-22T12:06:08;12.48;;;10.85;;
47531;SDS011;33273;52.254;7.988;2023-06-22T12:08:34;12.35;;;11.05;;
47531;SDS011;33273;52.254;7.988;2023-06-22T12:11:00;11.03;;;9.90;;
47531;SDS011;33273;52.254;7.988;2023-06-22T12:13:26;13.97;;;10.83;;
47531;SDS011;33273;52.254;7.988;2023-06-22T12:15:52;13.00;;;10.47;;
47531;SDS011;33273;52.254;7.988;2023-06-22T12:18:18;12.85;;;10.27;;
47531;SDS011;33273;52.254;7.988;2023-06-22T12:20:46;13.32;;;11.07;;
47531;SDS011;33273;52.254;7.988;2023-06-22T12:23:13;13.15;;;11.00;;
47531;SDS011;33273;52.254;7.988;2023-06-22T12:25:39;12.23;;;10.77;;
47531;SDS011;33273;52.254;7.988;2023-06-22T12:28:05;14.02;;;10.88;;
47531;SDS011;33273;52.254;7.988;2023-06-22T12:30:34;12.68;;;10.55;;
47531;SDS011;33273;52.254;7.988;2023-06-22T12:33:01;11.63;;;10.43;;
47531;SDS011;33273;52.254;7.988;2023-06-22T12:35:27;12.95;;;11.00;;
47531;SDS011;33273;52.254;7.988;2023-06-22T12:37:54;11.25;;;10.10;;
47531;SDS011;33273;52.254;7.988;2023-06-22T12:40:23;13.33;;;11.13;;
47531;SDS011;33273;52.254;7.988;2023-06-22T12:42:49;12.15;;;10.82;;
47531;SDS011;33273;52.254;7.988;2023-06-22T12:45:15;12.88;;;10.88;;
47531;SDS011;33273;52.254;7.988;2023-06-22T12:47:43;15.05;;;10.85;;
47531;SDS011;33273;52.254;7.988;2023-06-22T12:50:09;11.77;;;10.35;;
47531;SDS011;33273;52.254;7.988;2023-06-22T12:52:36;13.20;;;10.75;;
47531;SDS011;33273;52.254;7.988;2023-06-22T12:55:06;12.02;;;10.57;;
47531;SDS011;33273;52.254;7.988;2023-06-22T12:57:33;11.73;;;10.35;;
47531;SDS011;33273;52.254;7.988;2023-06-22T12:59:58;12.27;;;10.95;;
47531;SDS011;33273;52.254;7.988;2023-06-22T13:02:25;11.80;;;10.55;;
47531;SDS011;33273;52.254;7.988;2023-06-22T13:04:51;12.73;;;11.43;;
47531;SDS011;33273;52.254;7.988;2023-06-22T13:07:17;12.95;;;11.35;;
47531;SDS011;33273;52.254;7.988;2023-06-22T13:09:43;12.35;;;11.10;;
47531;SDS011;33273;52.254;7.988;2023-06-22T13:12:11;14.45;;;11.70;;
47531;SDS011;33273;52.254;7.988;2023-06-22T13:14:37;14.90;;;12.00;;
47531;SDS011;33273;52.254;7.988;2023-06-22T13:17:03;13.68;;;12.30;;
47531;SDS011;33273;52.254;7.988;2023-06-22T13:19:29;15.00;;;11.63;;
47531;SDS011;33273;52.254;7.988;2023-06-22T13:21:57;13.98;;;12.57;;
47531;SDS011;33273;52.254;7.988;2023-06-22T13:24:24;13.93;;;12.30;;
47531;SDS011;33273;52.254;7.988;2023-06-22T13:26:51;15.63;;;12.50;;
47531;SDS011;33273;52.254;7.988;2023-06-22T13:29:17;15.13;;;12.73;;
47531;SDS011;33273;52.254;7.988;2023-06-22T13:31:42;14.13;;;12.63;;
47531;SDS011;33273;52.254;7.988;2023-06-22T13:34:09;14.73;;;12.82;;
47531;SDS011;33273;52.254;7.988;2023-06-22T13:36:35;14.65;;;13.15;;
47531;SDS011;33273;52.254;7.988;2023-06-22T13:39:01;15.68;;;13.25;;
47531;SDS011;33273;52.254;7.988;2023-06-22T13:41:27;16.50;;;14.60;;
47531;SDS011;33273;52.254;7.988;2023-06-22T13:43:54;16.37;;;14.67;;
47531;SDS011;33273;52.254;7.988;2023-06-22T13:46:20;13.73;;;12.35;;
47531;SDS011;33273;52.254;7.988;2023-06-22T13:48:46;15.85;;;14.25;;
47531;SDS011;33273;52.254;7.988;2023-06-22T13:51:12;16.17;;;14.55;;
47531;SDS011;33273;52.254;7.988;2023-06-22T13:53:37;16.77;;;15.05;;
47531;SDS011;33273;52.254;7.988;2023-06-22T13:56:03;16.92;;;15.23;;
47531;SDS011;33273;52.254;7.988;2023-06-22T13:58:29;17.10;;;15.32;;
47531;SDS011;33273;52.254;7.988;2023-06-22T14:00:56;18.15;;;15.98;;
47531;SDS011;33273;52.254;7.988;2023-06-22T14:03:22;18.17;;;15.15;;
47531;SDS011;33273;52.254;7.988;2023-06-22T14:05:48;17.73;;;15.82;;
47531;SDS011;33273;52.254;7.988;2023-06-22T14:08:14;18.08;;;16.27;;
47531;SDS011;33273;52.254;7.988;2023-06-22T14:10:40;18.05;;;16.15;;
47531;SDS011;33273;52.254;7.988;2023-06-22T14:13:06;19.57;;;17.57;;
47531;SDS011;33273;52.254;7.988;2023-06-22T14:15:32;19.15;;;17.05;;
47531;SDS011;33273;52.254;7.988;2023-06-22T14:17:58;18.98;;;16.70;;
47531;SDS011;33273;52.254;7.988;2023-06-22T14:20:24;19.60;;;17.60;;
47531;SDS011;33273;52.254;7.988;2023-06-22T14:22:51;20.27;;;17.48;;
47531;SDS011;33273;52.254;7.988;2023-06-22T14:25:16;21.50;;;18.27;;
47531;SDS011;33273;52.254;7.988;2023-06-22T14:27:42;18.73;;;16.70;;
47531;SDS011;33273;52.254;7.988;2023-06-22T14:30:09;18.48;;;16.58;;
47531;SDS011;33273;52.254;7.988;2023-06-22T14:32:35;18.58;;;15.90;;
47531;SDS011;33273;52.254;7.988;2023-06-22T14:35:01;19.45;;;16.25;;
47531;SDS011;33273;52.254;7.988;2023-06-22T14:37:27;18.33;;;15.95;;
47531;SDS011;33273;52.254;7.988;2023-06-22T14:39:53;17.37;;;15.57;;